Time;durP1;ratioP1;P1;durP2;ratioP2;P2;SDS_P1;SDS_P2;PMS_P1;PMS_P2;Temp;Humidity;BMP_temperature;BMP_pressure;BME280_temperature;BME280_humidity;BME280_pressure;Samples;Min_cycle;Max_cycle;Signal;HPM_P1;HPM_P2
2022/11/10 00:01:42;;;;;;;55.38;28.15;;;;;;;9.62;100.00;100455.59;3539290;82;34866;-89
2022/11/10 00:06:46;;;;;;;53.00;28.50;;;;;;;9.63;100.00;100454.98;3545893;81;98905;-89
2022/11/10 00:11:47;;;;;;;55.17;28.62;;;;;;;9.64;100.00;100462.06;3586910;81;35396;-89
2022/11/10 00:17:00;;;;;;;50.73;27.10;;;;;;;9.64;100.00;100466.98;3585290;81;99021;-89
2022/11/10 00:22:01;;;;;;;52.98;27.17;;;;;;;9.64;100.00;100475.80;3591113;81;36103;-88
2022/11/10 00:27:02;;;;;;;53.07;28.17;;;;;;;9.65;100.00;100469.17;3543186;82;98855;-89
2022/11/10 00:32:03;;;;;;;50.30;27.73;;;;;;;9.65;100.00;100470.55;3548490;81;25848;-89
2022/11/10 00:37:04;;;;;;;50.53;25.47;;;;;;;9.64;100.00;100480.73;3537664;82;98900;-89
2022/11/10 00:42:05;;;;;;;51.13;27.20;;;;;;;9.64;100.00;100485.42;3546467;82;26660;-90
2022/11/10 00:47:06;;;;;;;49.73;26.30;;;;;;;9.63;100.00;100487.39;3594454;81;98765;-89
2022/11/10 00:52:07;;;;;;;51.03;27.10;;;;;;;9.65;100.00;100488.41;3609047;80;26276;-89
2022/11/10 00:57:08;;;;;;;48.07;25.40;;;;;;;9.65;100.00;100497.42;3566707;81;98663;-90
2022/11/10 01:02:09;;;;;;;51.73;26.87;;;;;;;9.65;100.00;100491.92;3611750;81;33452;-90
2022/11/10 01:07:10;;;;;;;47.17;25.83;;;;;;;9.67;100.00;100492.38;3598858;81;98640;-90
2022/11/10 01:12:10;;;;;;;49.35;26.70;;;;;;;9.69;100.00;100492.78;3608552;81;32916;-89
2022/11/10 01:17:11;;;;;;;48.80;26.33;;;;;;;9.71;100.00;100494.56;3594689;80;98711;-90
2022/11/10 01:22:12;;;;;;;45.83;24.50;;;;;;;9.73;100.00;100497.76;3599220;81;25910;-89
2022/11/10 01:27:13;;;;;;;55.53;27.90;;;;;;;9.75;100.00;100497.40;3590926;81;98887;-89
2022/11/10 01:32:14;;;;;;;49.80;26.70;;;;;;;9.77;100.00;100502.70;3593091;82;26050;-89
2022/11/10 01:37:15;;;;;;;49.03;26.12;;;;;;;9.79;100.00;100505.09;3552434;82;98964;-90
2022/11/10 01:42:26;;;;;;;50.40;27.00;;;;;;;9.80;100.00;100506.11;3553433;82;26234;-89
2022/11/10 01:47:27;;;;;;;50.50;25.90;;;;;;;9.82;100.00;100507.89;3597530;81;98533;-90
2022/11/10 01:52:28;;;;;;;45.03;24.37;;;;;;;9.84;100.00;100513.83;3621592;80;26089;-90
2022/11/10 01:57:29;;;;;;;55.57;28.13;;;;;;;9.84;100.00;100507.53;3617975;80;98627;-90
2022/11/10 02:02:35;;;;;;;49.50;26.23;;;;;;;9.86;100.00;100513.47;3621574;81;26484;-89
2022/11/10 02:07:37;;;;;;;49.10;25.55;;;;;;;9.87;100.00;100513.08;3616574;81;98820;-89
2022/11/10 02:12:38;;;;;;;48.15;24.50;;;;;;;9.90;100.00;100512.34;3623659;81;32397;-90
2022/11/10 02:17:40;;;;;;;49.17;25.60;;;;;;;9.92;100.00;100518.86;3614236;81;98544;-90
2022/11/10 02:22:40;;;;;;;47.43;25.32;;;;;;;9.94;100.00;100522.83;3618972;81;32491;-89
2022/11/10 02:27:41;;;;;;;46.80;24.23;;;;;;;9.95;100.00;100520.28;3564119;81;98776;-90
2022/11/10 02:32:42;;;;;;;47.57;25.37;;;;;;;9.97;100.00;100524.05;3593436;81;25983;-90
2022/11/10 02:37:43;;;;;;;46.13;24.50;;;;;;;9.98;100.00;100528.37;3540165;82;98587;-90
2022/11/10 02:42:43;;;;;;;45.70;23.10;;;;;;;10.00;100.00;100527.41;3604900;81;26181;-90
2022/11/10 02:47:44;;;;;;;52.13;25.07;;;;;;;10.00;100.00;100532.34;3553807;81;98735;-91
2022/11/10 02:52:45;;;;;;;45.43;23.57;;;;;;;10.01;100.00;100535.86;3555098;81;26406;-90
2022/11/10 02:57:46;;;;;;;43.02;22.70;;;;;;;10.03;100.00;100540.44;3591534;82;99114;-90
2022/11/10 03:02:47;;;;;;;45.60;23.20;;;;;;;10.03;100.00;100545.33;3532845;82;33363;-92
2022/11/10 03:08:00;;;;;;;44.50;22.67;;;;;;;10.04;100.00;100548.31;3606359;80;99015;-88
2022/11/10 03:13:02;;;;;;;43.92;22.82;;;;;;;10.06;100.00;100564.45;3610859;82;25834;-89
2022/11/10 03:18:04;;;;;;;41.92;23.10;;;;;;;10.08;100.00;100571.77;3560675;82;99166;-90
2022/11/10 03:23:05;;;;;;;40.83;21.30;;;;;;;10.09;100.00;100572.75;3564170;82;26145;-90
2022/11/10 03:28:06;;;;;;;40.33;20.70;;;;;;;10.12;100.00;100563.77;3562848;81;99140;-90
2022/11/10 03:33:06;;;;;;;39.97;21.80;;;;;;;10.15;100.00;100567.74;3568535;82;33658;-89
2022/11/10 03:38:07;;;;;;;40.63;21.07;;;;;;;10.19;100.00;100568.59;3503123;81;98975;-89
2022/11/10 03:43:10;;;;;;;40.83;19.90;;;;;;;10.20;100.00;100577.05;3524720;82;33408;-89
2022/11/10 03:48:11;;;;;;;40.97;21.50;;;;;;;10.23;100.00;100588.67;3463884;82;99041;-89
2022/11/10 03:53:12;;;;;;;34.00;18.37;;;;;;;10.24;100.00;100592.44;3466201;84;32909;-90
2022/11/10 03:58:13;;;;;;;33.07;17.23;;;;;;;10.25;100.00;100595.98;3490854;83;98964;-89
2022/11/10 04:03:13;;;;;;;28.83;16.57;;;;;;;10.25;100.00;100594.02;3495971;84;32971;-90
2022/11/10 04:18:55;;;;;;;31.60;16.60;;;;;;;10.24;100.00;100602.06;3525338;82;26299;-90
2022/11/10 04:23:56;;;;;;;30.47;15.80;;;;;;;10.23;100.00;100601.86;3519699;83;99348;-90
2022/11/10 04:29:04;;;;;;;27.60;15.07;;;;;;;10.25;100.00;100627.63;3455670;84;32970;-90
2022/11/10 04:34:09;;;;;;;30.23;15.47;;;;;;;10.23;100.00;100636.23;3497985;83;99260;-90
2022/11/10 04:39:10;;;;;;;29.00;15.40;;;;;;;10.23;100.00;100636.23;3527949;83;26335;-89
2022/11/10 04:44:11;;;;;;;29.00;15.20;;;;;;;10.23;100.00;100638.19;3536794;81;99370;-90
2022/11/10 04:49:12;;;;;;;37.87;19.40;;;;;;;10.22;100.00;100648.41;3530086;82;32915;-91
2022/11/10 04:54:13;;;;;;;27.40;15.97;;;;;;;10.23;100.00;100647.81;3517259;82;99427;-90
2022/11/10 04:59:14;;;;;;;26.60;14.85;;;;;;;10.21;100.00;100658.39;3527491;82;34188;-89
2022/11/10 05:04:15;;;;;;;33.13;15.40;;;;;;;10.21;100.00;100665.27;3519204;82;99184;-89
2022/11/10 05:09:15;;;;;;;30.50;15.23;;;;;;;10.20;100.00;100667.22;3521578;82;33914;-89
2022/11/10 05:14:16;;;;;;;25.27;14.83;;;;;;;10.16;100.00;100660.89;3539577;82;99536;-89
2022/11/10 05:19:17;;;;;;;29.50;13.95;;;;;;;10.16;100.00;100675.20;3497885;83;34099;-90
2022/11/10 05:24:18;;;;;;;24.20;12.77;;;;;;;10.14;100.00;100674.20;3491370;83;99278;-91
2022/11/10 05:29:18;;;;;;;26.17;13.50;;;;;;;10.13;100.00;100684.98;3498314;83;32217;-88
2022/11/10 05:34:19;;;;;;;21.23;11.38;;;;;;;10.13;100.00;100690.48;3515681;82;99297;-90
2022/11/10 05:39:20;;;;;;;22.17;11.23;;;;;;;10.14;100.00;100695.42;3500738;83;31634;-90
2022/11/10 05:44:20;;;;;;;21.63;10.50;;;;;;;10.14;100.00;100706.42;3515596;82;99283;-89
2022/11/10 05:49:21;;;;;;;22.80;10.80;;;;;;;10.17;100.00;100720.80;3525070;83;31620;-91
2022/11/10 05:54:22;;;;;;;20.12;9.90;;;;;;;10.18;100.00;100723.19;3533755;82;99202;-90
2022/11/10 05:59:23;;;;;;;18.37;9.45;;;;;;;10.19;100.00;100733.02;3478634;85;31619;-91
2022/11/10 06:04:24;;;;;;;19.47;9.47;;;;;;;10.20;100.00;100744.23;3512635;82;99303;-91
2022/11/10 06:09:25;;;;;;;18.07;9.77;;;;;;;10.21;100.00;100747.79;3531131;82;26345;-91
2022/11/10 06:14:25;;;;;;;18.20;9.28;;;;;;;10.22;100.00;100755.69;3535709;81;99264;-91
2022/11/10 06:19:26;;;;;;;16.47;8.03;;;;;;;10.23;100.00;100762.77;3585226;81;34870;-92
2022/11/10 06:24:27;;;;;;;24.40;9.97;;;;;;;10.22;100.00;100772.75;3570824;81;99115;-92
2022/11/10 06:29:28;;;;;;;19.57;9.57;;;;;;;10.20;100.00;100779.22;3531461;82;34860;-91
2022/11/10 06:34:28;;;;;;;17.53;8.33;;;;;;;10.17;100.00;100793.11;3519359;83;98766;-89
2022/11/10 06:39:29;;;;;;;14.80;8.55;;;;;;;10.15;100.00;100795.42;3504601;83;34804;-87
2022/11/10 06:44:30;;;;;;;24.33;10.17;;;;;;;10.08;100.00;100806.30;3510817;82;99170;-88
2022/11/10 06:49:31;;;;;;;19.07;9.17;;;;;;;10.03;100.00;100813.43;3541667;82;28129;-88
2022/11/10 06:54:32;;;;;;;20.23;9.80;;;;;;;9.97;100.00;100821.77;3531986;82;99189;-89
2022/11/10 06:59:33;;;;;;;18.43;9.93;;;;;;;9.94;100.00;100829.95;3541372;83;29272;-89
2022/11/10 07:04:33;;;;;;;19.27;10.07;;;;;;;9.93;100.00;100837.38;3476336;83;98868;-88
2022/11/10 07:09:34;;;;;;;17.50;8.93;;;;;;;9.95;100.00;100849.41;3549522;82;33163;-88
2022/11/10 07:14:35;;;;;;;18.03;8.17;;;;;;;9.99;100.00;100870.33;3481449;82;99009;-89
2022/11/10 07:19:36;;;;;;;21.60;9.60;;;;;;;10.05;100.00;100870.85;3541684;82;32503;-86
2022/11/10 07:24:36;;;;;;;16.43;9.60;;;;;;;10.11;100.00;100881.78;3505319;82;99309;-89
2022/11/10 07:29:38;;;;;;;16.03;8.10;;;;;;;10.18;100.00;100896.47;3666382;80;26019;-89
2022/11/10 07:34:39;;;;;;;17.77;8.88;;;;;;;10.28;100.00;100897.83;3643772;80;99280;-88
2022/11/10 07:39:40;;;;;;;13.77;6.80;;;;;;;10.36;100.00;100907.83;3596714;81;25864;-86
2022/11/10 07:44:41;;;;;;;12.13;5.77;;;;;;;10.44;100.00;100918.61;3591572;81;99205;-89
2022/11/10 07:49:42;;;;;;;12.90;6.17;;;;;;;10.52;100.00;100931.33;3586099;81;25882;-87
2022/11/10 07:54:42;;;;;;;12.70;5.20;;;;;;;10.60;100.00;100928.13;3583870;81;98904;-90
2022/11/10 07:59:43;;;;;;;13.63;5.87;;;;;;;10.68;100.00;100943.04;3602222;80;25915;-89
2022/11/10 08:04:44;;;;;;;12.63;6.30;;;;;;;10.76;100.00;100941.22;3595814;81;99095;-86
2022/11/10 08:09:45;;;;;;;12.00;5.33;;;;;;;10.83;100.00;100949.03;3604633;81;25893;-88
2022/11/10 08:14:46;;;;;;;10.35;4.67;;;;;;;10.90;100.00;100959.39;3593283;80;99073;-88
2022/11/10 08:19:47;;;;;;;13.40;5.93;;;;;;;11.01;100.00;100966.66;3600309;80;32982;-89
2022/11/10 08:24:47;;;;;;;13.07;6.37;;;;;;;11.06;100.00;100978.75;3581915;80;99022;-90
2022/11/10 08:29:48;;;;;;;12.50;5.83;;;;;;;11.11;100.00;100992.23;3531824;82;32913;-87
2022/11/10 08:34:49;;;;;;;11.93;6.50;;;;;;;11.26;100.00;100990.51;3590630;81;99155;-88
2022/11/10 08:39:50;;;;;;;13.73;5.60;;;;;;;11.61;100.00;100994.67;3590945;81;32824;-88
2022/11/10 08:44:50;;;;;;;14.97;4.97;;;;;;;12.05;100.00;101003.23;3587381;80;99082;-91
2022/11/10 08:49:51;;;;;;;10.53;4.50;;;;;;;12.31;100.00;101007.34;3578599;81;33153;-87
2022/11/10 08:54:52;;;;;;;11.57;4.87;;;;;;;12.61;100.00;101021.91;3571598;81;98885;-92
2022/11/10 08:59:53;;;;;;;12.83;4.60;;;;;;;12.85;100.00;101033.25;3579149;82;26217;-88
2022/11/10 09:04:54;;;;;;;10.43;4.83;;;;;;;13.00;100.00;101036.99;3572515;82;99015;-87
2022/11/10 09:09:55;;;;;;;10.57;4.07;;;;;;;13.17;100.00;101049.63;3532409;82;32928;-89
2022/11/10 09:14:56;;;;;;;10.20;3.90;;;;;;;13.31;99.94;101058.66;3581666;80;99271;-90
2022/11/10 09:19:56;;;;;;;10.70;4.40;;;;;;;13.37;99.99;101073.14;3593560;80;31672;-88
2022/11/10 09:24:57;;;;;;;15.50;5.83;;;;;;;13.41;98.68;101067.64;3562644;81;99008;-88
2022/11/10 09:29:58;;;;;;;12.63;4.23;;;;;;;13.43;98.56;101090.98;3484431;83;31729;-88
2022/11/10 09:35:00;;;;;;;12.85;3.92;;;;;;;13.41;97.69;101085.01;3550589;81;98849;-91
2022/11/10 09:40:01;;;;;;;13.60;5.10;;;;;;;13.43;97.81;101101.23;3580379;82;32164;-89
2022/11/10 09:45:25;;;;;;;11.77;3.57;;;;;;;13.55;97.54;101096.22;3572382;81;98733;-86
2022/11/10 09:50:41;;;;;;;8.80;3.60;;;;;;;13.73;96.83;101107.46;3596868;81;32076;-87
2022/11/10 09:55:47;;;;;;;11.47;4.07;;;;;;;13.74;96.62;101090.45;3592687;81;98580;-88
2022/11/10 10:01:08;;;;;;;14.38;4.20;;;;;;;14.00;95.98;101117.19;3600482;81;32041;-89
2022/11/10 10:06:12;;;;;;;10.23;3.70;;;;;;;14.08;95.24;101116.86;3594000;82;98793;-86
2022/11/10 10:11:38;;;;;;;9.20;2.83;;;;;;;14.12;94.83;101117.66;3613650;80;32288;-87
2022/11/10 10:17:15;;;;;;;12.05;3.67;;;;;;;14.19;93.44;101123.30;3601969;81;98464;-87
2022/11/10 10:23:09;;;;;;;11.90;4.50;;;;;;;14.12;93.04;101137.64;3608980;82;26603;-87
2022/11/10 10:28:37;;;;;;;11.30;4.13;;;;;;;14.09;92.34;101141.16;3556548;82;98609;-86
2022/11/10 10:33:38;;;;;;;10.07;3.40;;;;;;;14.05;91.75;101145.86;3610512;81;98953;-88
2022/11/10 10:38:40;;;;;;;11.63;3.43;;;;;;;14.01;91.05;101152.76;3610779;81;26337;-88
2022/11/10 10:43:48;;;;;;;8.08;2.80;;;;;;;14.06;91.38;101148.26;3595763;81;100552;-87
2022/11/10 10:49:14;;;;;;;12.63;3.40;;;;;;;14.07;91.23;101155.98;3541439;82;31696;-87
2022/11/10 10:54:27;;;;;;;11.73;2.77;;;;;;;14.16;91.10;101149.52;3535040;82;98702;-88
2022/11/10 10:59:29;;;;;;;6.80;2.00;;;;;;;14.18;89.95;101150.72;3503726;83;31658;-88
2022/11/10 11:04:36;;;;;;;8.85;2.20;;;;;;;14.21;89.77;101161.08;3495579;82;99185;-88
2022/11/10 11:09:43;;;;;;;7.95;2.25;;;;;;;14.16;87.99;101146.75;3501895;83;31622;-86
2022/11/10 11:14:43;;;;;;;11.50;2.47;;;;;;;14.14;88.44;101164.34;3507959;82;98939;-86
2022/11/10 11:19:44;;;;;;;8.33;2.43;;;;;;;14.11;87.62;101163.73;3552290;82;28183;-89
2022/11/10 11:25:24;;;;;;;8.00;2.67;;;;;;;14.09;86.23;101161.92;3553673;82;98806;-88
2022/11/10 11:31:00;;;;;;;7.47;2.30;;;;;;;14.05;86.94;101166.05;3561554;82;31657;-90
2022/11/10 11:36:22;;;;;;;7.63;2.23;;;;;;;14.11;87.14;101170.66;3582794;81;98756;-91
2022/11/10 11:41:49;;;;;;;9.78;3.33;;;;;;;14.12;86.37;101173.02;3610355;81;32625;-87
2022/11/10 11:46:58;;;;;;;8.20;3.12;;;;;;;14.12;85.97;101167.48;3610792;80;98864;-90
2022/11/10 11:52:14;;;;;;;9.25;2.50;;;;;;;14.19;87.02;101180.05;3600424;81;31680;-84
2022/11/10 11:57:50;;;;;;;8.73;2.57;;;;;;;14.25;86.41;101185.44;3603297;80;98639;-87
2022/11/10 12:03:11;;;;;;;10.68;2.35;;;;;;;14.31;86.23;101185.86;3600592;82;32601;-84
2022/11/10 12:08:47;;;;;;;7.15;2.52;;;;;;;14.39;84.96;101203.53;3595291;82;98776;-85
2022/11/10 12:14:32;;;;;;;10.25;2.67;;;;;;;14.43;84.53;101197.44;3573525;81;98726;-88
2022/11/10 12:20:10;;;;;;;11.28;3.05;;;;;;;14.46;85.10;101201.42;3611794;81;31650;-87
2022/11/10 12:25:34;;;;;;;8.50;2.47;;;;;;;14.53;85.60;101202.84;3456730;81;98839;-87
2022/11/10 12:30:37;;;;;;;7.75;2.60;;;;;;;14.60;85.98;101205.09;3612117;80;31659;-88
2022/11/10 12:35:42;;;;;;;8.68;2.20;;;;;;;14.66;85.90;101209.69;3609063;81;98487;-86
2022/11/10 12:40:51;;;;;;;12.23;3.15;;;;;;;14.70;84.46;101220.19;3613852;80;31715;-87
2022/11/10 12:45:56;;;;;;;10.98;3.55;;;;;;;14.66;82.73;101236.02;3605793;81;98716;-87
2022/11/10 12:51:05;;;;;;;12.00;2.80;;;;;;;14.60;82.05;101243.09;3601574;81;26283;-86
2022/11/10 12:56:24;;;;;;;8.48;2.12;;;;;;;14.53;83.01;101250.75;3583416;81;99007;-88
2022/11/10 13:01:25;;;;;;;7.22;2.02;;;;;;;14.48;81.80;101254.45;3590038;81;31639;-88
2022/11/10 13:06:35;;;;;;;8.70;2.73;;;;;;;14.43;83.63;101259.77;3579766;81;98628;-86
2022/11/10 13:11:36;;;;;;;17.07;3.10;;;;;;;14.40;82.91;101265.27;3585872;82;32139;-87
2022/11/10 13:16:48;;;;;;;10.43;2.58;;;;;;;14.35;83.60;101262.27;3586648;81;98600;-91
2022/11/10 13:22:03;;;;;;;10.32;3.72;;;;;;;14.33;83.13;101266.00;3594283;81;32209;-89
2022/11/10 13:27:36;;;;;;;9.23;2.98;;;;;;;14.32;83.49;101274.68;3554002;81;98688;-90
2022/11/10 13:32:37;;;;;;;9.63;2.50;;;;;;;14.27;83.70;101276.41;3546003;82;31548;-89
2022/11/10 13:37:45;;;;;;;7.27;2.13;;;;;;;14.20;83.24;101288.81;3500785;81;98624;-88
2022/11/10 13:43:03;;;;;;;6.83;2.33;;;;;;;14.09;83.15;101288.68;3499081;83;31679;-88
2022/11/10 13:48:18;;;;;;;9.60;2.20;;;;;;;14.03;83.52;101288.02;3543369;81;98715;-87
2022/11/10 13:53:32;;;;;;;7.17;2.10;;;;;;;13.93;83.53;101293.64;3551258;81;31632;-89
2022/11/10 13:58:35;;;;;;;9.90;2.80;;;;;;;13.69;83.88;101278.91;3552746;83;31688;-87
2022/11/10 14:03:52;;;;;;;8.95;2.80;;;;;;;13.71;83.96;101309.79;3548160;81;98611;-87
2022/11/10 14:09:07;;;;;;;9.23;2.95;;;;;;;13.58;84.15;101320.87;3551990;81;31805;-88
2022/11/10 14:14:24;;;;;;;13.87;3.10;;;;;;;13.47;84.42;101324.68;3547086;81;98736;-87
2022/11/10 14:19:42;;;;;;;8.05;2.90;;;;;;;13.36;84.94;101338.34;3552157;82;32686;-88
2022/11/10 14:24:57;;;;;;;10.72;3.52;;;;;;;13.24;85.28;101341.33;3545958;81;98774;-86
2022/11/10 14:30:20;;;;;;;13.77;4.50;;;;;;;13.13;85.46;101350.66;3533586;82;26364;-87
2022/11/10 14:35:28;;;;;;;12.33;4.92;;;;;;;13.00;86.00;101349.24;3533381;82;98891;-88
2022/11/10 14:40:30;;;;;;;11.55;3.65;;;;;;;12.89;86.39;101349.63;3545058;82;31694;-87
2022/11/10 14:45:31;;;;;;;8.65;3.92;;;;;;;12.75;86.85;101354.33;3542657;82;98976;-87
2022/11/10 14:50:34;;;;;;;9.90;2.50;;;;;;;12.63;86.92;101373.05;3587772;81;25828;-87
2022/11/10 14:55:35;;;;;;;6.50;2.37;;;;;;;12.47;87.50;101379.27;3599158;80;98491;-88
2022/11/10 15:00:39;;;;;;;7.77;2.73;;;;;;;12.35;87.67;101392.67;3615589;80;25931;-88
2022/11/10 15:05:41;;;;;;;7.65;2.62;;;;;;;12.20;88.21;101408.73;3622956;80;98852;-88
2022/11/10 15:10:49;;;;;;;7.78;2.80;;;;;;;12.08;88.58;101405.31;3606233;80;31688;-89
2022/11/10 15:15:52;;;;;;;11.97;2.92;;;;;;;11.98;88.81;101410.84;3624171;80;98974;-89
2022/11/10 15:21:05;;;;;;;11.35;3.00;;;;;;;11.85;89.08;101414.91;3620178;80;30375;-90
2022/11/10 15:26:14;;;;;;;12.53;3.37;;;;;;;11.77;89.35;101426.93;3595221;81;99048;-87
2022/11/10 15:31:31;;;;;;;10.93;3.35;;;;;;;11.68;89.80;101448.41;3594370;81;32288;-88
2022/11/10 15:36:40;;;;;;;9.48;3.67;;;;;;;11.62;90.08;101452.58;3562637;81;99036;-87
2022/11/10 15:41:49;;;;;;;12.37;3.50;;;;;;;11.57;90.46;101461.69;3543204;83;29828;-88
2022/11/10 15:46:53;;;;;;;17.10;7.83;;;;;;;11.51;90.80;101468.64;3534529;82;98658;-89
2022/11/10 15:52:02;;;;;;;17.12;6.45;;;;;;;11.43;91.35;101486.16;3517998;82;32221;-90
2022/11/10 15:57:05;;;;;;;13.83;6.20;;;;;;;11.35;91.34;101485.77;3567141;81;98334;-89
2022/11/10 16:02:20;;;;;;;19.85;8.28;;;;;;;11.33;91.82;101486.72;3571493;81;32199;-91
2022/11/10 16:07:20;;;;;;;14.85;6.62;;;;;;;11.28;92.02;101485.01;3502671;82;98484;-88
2022/11/10 16:12:22;;;;;;;14.57;6.27;;;;;;;11.24;92.24;101488.84;3488549;83;26469;-89
2022/11/10 16:17:23;;;;;;;10.13;5.20;;;;;;;11.21;92.67;101496.42;3476127;83;98993;-89
2022/11/10 16:22:24;;;;;;;13.87;4.93;;;;;;;11.19;92.94;101503.70;3479637;84;25833;-90
2022/11/10 16:27:25;;;;;;;17.95;8.90;;;;;;;11.14;92.91;101512.22;3465405;84;98527;-88
2022/11/10 16:32:25;;;;;;;25.33;10.97;;;;;;;11.13;92.94;101518.08;3474012;84;30774;-89
2022/11/10 16:37:26;;;;;;;21.43;9.40;;;;;;;11.11;93.07;101518.42;3532136;82;99113;-92
2022/11/10 16:42:29;;;;;;;23.87;11.23;;;;;;;11.10;93.18;101525.66;3558487;81;35945;-91
2022/11/10 16:47:31;;;;;;;13.25;5.75;;;;;;;11.08;93.39;101534.87;3525339;82;98822;-90
2022/11/10 16:52:32;;;;;;;18.47;5.90;;;;;;;11.07;93.56;101523.03;3579932;80;26127;-90
2022/11/10 16:57:33;;;;;;;11.55;5.00;;;;;;;11.05;93.68;101534.19;3597399;81;99682;-90
2022/11/10 17:02:35;;;;;;;14.87;5.40;;;;;;;11.03;93.74;101537.88;3599788;81;26382;-92
2022/11/10 17:07:38;;;;;;;12.70;5.23;;;;;;;11.02;93.95;101548.68;3582858;80;99053;-90
2022/11/10 17:12:38;;;;;;;18.20;5.15;;;;;;;10.99;93.92;101546.05;3559822;83;30242;-90
2022/11/10 17:17:44;;;;;;;12.77;5.77;;;;;;;10.98;94.01;101540.89;3553805;82;98729;-90
2022/11/10 17:22:46;;;;;;;14.85;5.80;;;;;;;10.96;94.10;101541.23;3560028;81;26611;-91
2022/11/10 17:27:46;;;;;;;13.43;6.22;;;;;;;10.95;94.10;101554.01;3562768;81;98896;-90
2022/11/10 17:32:47;;;;;;;19.00;8.47;;;;;;;10.93;94.48;101562.61;3571071;81;26242;-89
2022/11/10 17:37:51;;;;;;;23.00;9.50;;;;;;;10.92;94.55;101563.77;3503942;80;98854;-90
2022/11/10 17:42:52;;;;;;;22.93;10.10;;;;;;;10.90;94.67;101561.14;3501738;83;29890;-90
2022/11/10 17:47:54;;;;;;;24.77;10.23;;;;;;;10.89;95.01;101576.86;3544285;81;98922;-91
2022/11/10 17:52:54;;;;;;;22.65;8.68;;;;;;;10.89;95.31;101575.48;3552951;81;32153;-91
2022/11/10 17:57:58;;;;;;;15.87;6.97;;;;;;;10.90;95.42;101589.47;3528184;81;98961;-91
2022/11/10 18:02:59;;;;;;;13.38;6.10;;;;;;;10.90;95.56;101591.44;3553367;81;32246;-91
2022/11/10 18:08:00;;;;;;;14.70;6.40;;;;;;;10.92;95.63;101600.14;3578696;81;98698;-91
2022/11/10 18:13:01;;;;;;;18.43;7.33;;;;;;;10.92;95.83;101603.72;3605276;81;26338;-90
2022/11/10 18:18:02;;;;;;;19.93;6.23;;;;;;;10.94;95.98;101606.91;3593134;81;98666;-90
2022/11/10 18:23:03;;;;;;;14.73;6.03;;;;;;;10.96;96.15;101607.34;3592965;81;31203;-89
2022/11/10 18:28:04;;;;;;;15.77;6.77;;;;;;;11.00;96.12;101612.95;3541463;80;98740;-89
2022/11/10 18:33:06;;;;;;;18.15;8.30;;;;;;;11.05;96.33;101620.41;3545699;82;26255;-89
2022/11/10 18:38:10;;;;;;;19.10;7.97;;;;;;;11.08;96.16;101627.98;3576484;81;98588;-91
2022/11/10 18:43:11;;;;;;;22.27;9.53;;;;;;;11.08;96.10;101616.14;3556021;81;31629;-89
2022/11/10 18:48:12;;;;;;;18.03;7.13;;;;;;;11.14;95.99;101615.55;3547658;81;98870;-90
2022/11/10 18:53:13;;;;;;;19.80;6.73;;;;;;;11.14;95.85;101607.84;3553888;81;35689;-93
2022/11/10 18:58:14;;;;;;;17.67;6.17;;;;;;;11.12;95.89;101593.04;3546842;81;98509;-89
2022/11/10 19:03:14;;;;;;;14.87;6.00;;;;;;;11.12;95.89;101593.04;3550781;82;35435;-92
2022/11/10 19:08:15;;;;;;;18.40;6.33;;;;;;;11.09;95.67;101613.61;3562587;82;98862;-91
2022/11/10 19:13:16;;;;;;;13.57;6.43;;;;;;;11.06;95.74;101624.75;3569585;82;36002;-92
2022/11/10 19:18:17;;;;;;;17.10;6.12;;;;;;;11.03;95.79;101610.89;3544798;82;98593;-93
2022/11/10 19:23:17;;;;;;;16.10;6.63;;;;;;;10.96;95.95;101605.97;3565428;82;25934;-92
2022/11/10 19:28:18;;;;;;;16.27;7.57;;;;;;;10.92;95.99;101621.62;3600874;82;98516;-92
2022/11/10 19:33:19;;;;;;;19.13;8.53;;;;;;;10.88;96.13;101633.09;3606345;81;27176;-92
2022/11/10 19:38:20;;;;;;;20.00;8.70;;;;;;;10.83;96.26;101626.45;3551700;81;99042;-91
2022/11/10 19:43:21;;;;;;;21.77;9.23;;;;;;;10.81;96.35;101634.84;3556664;81;26572;-90
2022/11/10 19:48:22;;;;;;;19.87;9.70;;;;;;;10.78;96.44;101641.03;3552562;82;98646;-93
2022/11/10 19:53:22;;;;;;;26.17;12.70;;;;;;;10.73;96.55;101642.09;3551996;82;99073;-87
2022/11/10 19:58:23;;;;;;;25.70;12.65;;;;;;;10.69;96.78;101643.14;3544284;82;32405;-90
2022/11/10 20:03:24;;;;;;;21.37;9.03;;;;;;;10.68;96.85;101655.31;3565887;82;98917;-93
2022/11/10 20:08:25;;;;;;;21.07;9.20;;;;;;;10.61;97.08;101658.64;3571242;81;29284;-92
2022/11/10 20:13:26;;;;;;;22.13;9.97;;;;;;;10.58;97.25;101664.05;3559166;81;99490;-90
2022/11/10 20:18:27;;;;;;;21.10;9.47;;;;;;;10.54;97.33;101660.37;3610794;80;26165;-91
2022/11/10 20:23:28;;;;;;;23.00;9.63;;;;;;;10.51;97.50;101673.44;3598664;80;98991;-92
2022/11/10 20:28:29;;;;;;;20.73;9.00;;;;;;;10.47;97.69;101673.34;3623337;80;26180;-91
2022/11/10 20:33:31;;;;;;;18.93;8.50;;;;;;;10.45;98.11;101663.82;3602934;80;99119;-90
2022/11/10 20:38:32;;;;;;;16.77;8.23;;;;;;;10.44;98.30;101655.34;3610378;80;26520;-89
2022/11/10 20:43:36;;;;;;;17.60;7.57;;;;;;;10.44;98.61;101649.84;3605603;80;99143;-89
2022/11/10 20:48:37;;;;;;;18.65;9.10;;;;;;;10.44;98.66;101663.03;3612611;80;32285;-92
2022/11/10 20:53:38;;;;;;;20.90;9.33;;;;;;;10.46;98.83;101662.70;3594741;80;99230;-89
2022/11/10 20:58:41;;;;;;;18.40;8.97;;;;;;;10.48;98.96;101665.30;3554140;81;26138;-91
2022/11/10 21:03:43;;;;;;;17.75;8.03;;;;;;;10.47;99.03;101658.20;3558171;81;99078;-90
2022/11/10 21:08:45;;;;;;;20.80;8.73;;;;;;;10.51;99.12;101670.13;3590554;81;33871;-90
2022/11/10 21:13:45;;;;;;;20.37;8.65;;;;;;;10.51;99.01;101667.94;3583696;81;99171;-87
2022/11/10 21:18:46;;;;;;;22.67;9.67;;;;;;;10.51;99.01;101675.63;3611803;80;26679;-91
2022/11/10 21:23:55;;;;;;;21.27;9.88;;;;;;;10.49;98.97;101673.81;3604015;81;99038;-92
2022/11/10 21:28:52;;;;;;;34.92;13.28;;;;;;;10.47;99.00;101678.84;3612226;80;32083;-92
2022/11/10 21:33:59;;;;;;;25.43;13.73;;;;;;;10.43;98.89;101682.08;3610424;80;99342;-89
2022/11/10 21:39:00;;;;;;;27.07;12.07;;;;;;;10.39;99.00;101681.16;3604862;81;33193;-92
2022/11/10 21:44:01;;;;;;;20.73;8.93;;;;;;;10.34;98.93;101685.52;3580197;80;98881;-91
2022/11/10 21:49:02;;;;;;;20.50;8.23;;;;;;;10.30;99.23;101693.44;3603670;80;26504;-89
2022/11/10 21:54:03;;;;;;;16.20;6.30;;;;;;;10.25;99.37;101699.17;3577745;80;99077;-91
2022/11/10 21:59:04;;;;;;;22.60;8.13;;;;;;;10.20;99.55;101707.66;3604505;80;25887;-92
2022/11/10 22:04:05;;;;;;;15.73;7.07;;;;;;;10.16;99.65;101717.16;3601563;81;98996;-92
2022/11/10 22:09:06;;;;;;;14.57;6.60;;;;;;;10.12;99.90;101716.23;3604003;80;26606;-90
2022/11/10 22:19:19;;;;;;;16.05;6.45;;;;;;;10.08;100.00;101736.53;3606499;81;32439;-92
2022/11/10 22:24:23;;;;;;;15.17;6.20;;;;;;;10.06;100.00;101746.49;3602842;80;98945;-92
2022/11/10 22:29:27;;;;;;;13.48;5.42;;;;;;;10.06;100.00;101745.67;3606964;80;32513;-94
2022/11/10 22:34:28;;;;;;;24.00;7.03;;;;;;;10.08;100.00;101755.20;3593367;82;98828;-89
2022/11/10 22:44:47;;;;;;;18.05;6.12;;;;;;;10.13;100.00;101761.04;3537864;81;99262;-90
2022/11/10 22:49:48;;;;;;;24.50;7.07;;;;;;;10.16;100.00;101759.81;3544775;82;25902;-90
2022/11/10 22:54:49;;;;;;;16.43;6.10;;;;;;;10.20;100.00;101756.58;3538636;82;99213;-92
2022/11/10 22:59:50;;;;;;;17.03;5.50;;;;;;;10.24;100.00;101756.14;3567755;82;25942;-91
2022/11/10 23:04:50;;;;;;;13.60;5.13;;;;;;;10.29;100.00;101746.84;3578813;81;99058;-89
2022/11/10 23:09:51;;;;;;;13.50;5.27;;;;;;;10.33;100.00;101748.59;3580715;82;26135;-89
2022/11/10 23:14:52;;;;;;;17.57;6.00;;;;;;;10.38;100.00;101761.31;3561359;82;99439;-90
2022/11/10 23:19:53;;;;;;;16.00;5.50;;;;;;;10.42;100.00;101746.50;3535211;83;26298;-88
2022/11/10 23:24:54;;;;;;;19.93;6.07;;;;;;;10.48;100.00;101747.09;3510093;82;99327;-90
2022/11/10 23:29:54;;;;;;;14.70;6.90;;;;;;;10.53;100.00;101741.36;3531667;83;34069;-90
2022/11/10 23:34:55;;;;;;;22.42;6.05;;;;;;;10.57;100.00;101747.80;3505894;81;99001;-90